Connexion S'enregistrer

Connexion à votre compte

Identifiant
Mot de passe
Maintenir la connexion active sur ce site

Créer un compte

Pour valider ce formulaire, vous devez remplir tous les champs.
Nom
Identifiant
Mot de passe
Répétez le mot de passe
Adresse e-mail
Répétez l'adresse e-mail

METAR/TAF de Chambéry

[source: ADDS]
METAR
LFLB 212100Z AUTO 03003KT 350V060 9999 SCT058 SCT068 BKN088 12/07 Q1017 =
TAF LFLB 211400Z 2115/2215 VRB03KT CAVOK PROB40 TEMPO 2115/2119 VRB15KT 4000 SHRA BKN040CB PROB30 TEMPO 2119/2124 -SHRA SCT040TCU BKN050 PROB30 2202/2206 4000 BR BECMG 2206/2209 34007KT
TAF
TAF LFLB 211400Z 2115/2215 VRB03KT CAVOK PROB40 TEMPO 2115/2119 VRB15KT 4000 SHRA BKN040CB PROB30 TEMPO 2119/2124 -SHRA SCT040TCU BKN050 PROB30 2202/2206 4000 BR BECMG 2206/2209 34007KT =
SR / SS: 04:39 / 18:30 UTC (Lever/Coucher du soleil le 2021-04-21)

 

Webcam de l'Aéroclub - Parking Lima et SW (réactualisation : 5min)

Cliquer ici pour une animation sur les 3 dernières heures / Cliquer sur l'image pour l'agrandir dans une nouvelle fenêtre

 

Webcam de l'Aéroclub - Manche à air et WA (réactualisation : 5min)

Cliquer ici pour une animation sur les 3 dernières heures / Cliquer sur l'image pour l'agrandir dans une nouvelle fenêtre

 

JSN Boot template designed by JoomlaShine.com